createdAt,value
2022-09-14T00:00:01.942Z,17.1
2022-09-14T00:01:21.570Z,17.2
2022-09-14T00:02:02.204Z,17.1
2022-09-14T00:03:01.919Z,17.1
2022-09-14T00:04:01.331Z,17.1
2022-09-14T00:05:01.893Z,17.1
2022-09-14T00:06:01.503Z,17.1
2022-09-14T00:07:02.041Z,17.1
2022-09-14T00:08:01.616Z,17.1
2022-09-14T00:09:01.209Z,17
2022-09-14T00:10:01.768Z,17
2022-09-14T00:11:01.391Z,17
2022-09-14T00:12:01.939Z,17
2022-09-14T00:13:01.513Z,17
2022-09-14T00:14:01.103Z,16.9
2022-09-14T00:15:01.657Z,16.9
2022-09-14T00:16:01.232Z,16.9
2022-09-14T00:17:01.883Z,16.9
2022-09-14T00:18:01.461Z,16.9
2022-09-14T00:19:02.057Z,16.9
2022-09-14T00:20:01.632Z,16.9
2022-09-14T00:21:01.204Z,16.8
2022-09-14T00:22:01.779Z,16.8
2022-09-14T00:23:01.357Z,16.8
2022-09-14T00:24:01.946Z,16.8
2022-09-14T00:25:01.539Z,16.8
2022-09-14T00:26:01.100Z,16.8
2022-09-14T00:27:01.693Z,16.8
2022-09-14T00:28:01.272Z,16.8
2022-09-14T00:29:01.850Z,16.7
2022-09-14T00:30:01.440Z,16.8
2022-09-14T00:31:01.995Z,16.8
2022-09-14T00:32:01.643Z,16.7
2022-09-14T00:33:01.210Z,16.7
2022-09-14T00:34:01.784Z,16.8
2022-09-14T00:35:01.377Z,16.8
2022-09-14T00:36:01.938Z,16.7
2022-09-14T00:37:01.513Z,16.8
2022-09-14T00:38:01.086Z,16.8
2022-09-14T00:39:01.657Z,16.8
2022-09-14T00:40:01.293Z,16.7
2022-09-14T00:41:01.814Z,16.8
2022-09-14T00:42:01.387Z,16.7
2022-09-14T00:43:01.984Z,16.7
2022-09-14T00:44:01.586Z,16.7
2022-09-14T00:45:01.149Z,16.7
2022-09-14T00:46:01.765Z,16.7
2022-09-14T00:47:01.352Z,16.6
2022-09-14T00:48:01.930Z,16.7
2022-09-14T00:49:01.508Z,16.7
2022-09-14T00:50:01.099Z,16.7
2022-09-14T00:51:01.677Z,16.7
2022-09-14T00:52:01.260Z,16.7
2022-09-14T00:53:01.836Z,16.7
2022-09-14T00:54:01.412Z,16.7
2022-09-14T00:55:01.986Z,16.7
2022-09-14T00:56:01.603Z,16.6
2022-09-14T00:57:01.136Z,16.7
2022-09-14T00:58:01.709Z,16.7
2022-09-14T00:59:01.392Z,16.6
2022-09-14T01:00:01.855Z,16.6
2022-09-14T01:01:01.480Z,16.6
2022-09-14T01:02:02.087Z,16.7
2022-09-14T01:03:01.695Z,16.6
2022-09-14T01:04:01.227Z,16.6
2022-09-14T01:05:01.803Z,16.6
2022-09-14T01:06:01.377Z,16.6
2022-09-14T01:07:02.018Z,16.6
2022-09-14T01:08:01.593Z,16.6
2022-09-14T01:09:01.168Z,16.6
2022-09-14T01:10:01.750Z,16.6
2022-09-14T01:11:01.324Z,16.6
2022-09-14T01:12:01.917Z,16.6
2022-09-14T01:13:01.492Z,16.6
2022-09-14T01:14:02.082Z,16.5
2022-09-14T01:15:01.844Z,16.6
2022-09-14T01:16:01.375Z,16.6
2022-09-14T01:17:01.886Z,16.6
2022-09-14T01:18:01.462Z,16.5
2022-09-14T01:19:02.046Z,16.5
2022-09-14T01:20:01.619Z,16.5
2022-09-14T01:21:01.192Z,16.5
2022-09-14T01:22:01.768Z,16.6
2022-09-14T01:23:01.361Z,16.5
2022-09-14T01:24:01.923Z,16.6
2022-09-14T01:25:01.531Z,16.6
2022-09-14T01:26:01.077Z,16.5
2022-09-14T01:27:01.650Z,16.5
2022-09-14T01:28:01.223Z,16.5
2022-09-14T01:29:01.797Z,16.5
2022-09-14T01:30:01.387Z,16.5
2022-09-14T01:31:01.966Z,16.5
2022-09-14T01:32:01.632Z,16.5
2022-09-14T01:33:01.125Z,16.5
2022-09-14T01:34:01.701Z,16.4
2022-09-14T01:35:01.296Z,16.4
2022-09-14T01:36:01.867Z,16.4
2022-09-14T01:37:01.442Z,16.4
2022-09-14T01:38:02.015Z,16.3
2022-09-14T01:39:01.590Z,16.3
2022-09-14T01:40:01.257Z,16.3
2022-09-14T01:41:01.740Z,16.3
2022-09-14T01:42:01.330Z,16.3
2022-09-14T01:43:01.896Z,16.2
2022-09-14T01:44:01.471Z,16.2
2022-09-14T01:45:02.071Z,16.3
2022-09-14T01:46:01.725Z,16.2
2022-09-14T01:47:01.308Z,16.2
2022-09-14T01:48:01.843Z,16.2
2022-09-14T01:49:01.416Z,16.2
2022-09-14T01:50:02.008Z,16.2
2022-09-14T01:51:01.603Z,16.1
2022-09-14T01:52:01.166Z,16.2
2022-09-14T01:53:01.737Z,16.2
2022-09-14T01:54:01.312Z,16.2
2022-09-14T01:55:01.882Z,16.1
2022-09-14T01:56:01.472Z,16.1
2022-09-14T01:57:02.039Z,16.1
2022-09-14T01:58:01.614Z,16
2022-09-14T01:59:01.188Z,16
2022-09-14T02:00:01.760Z,16
2022-09-14T02:01:01.399Z,15.9
2022-09-14T02:02:01.973Z,15.9
2022-09-14T02:03:01.681Z,15.9
2022-09-14T02:04:01.153Z,16
2022-09-14T02:05:01.729Z,16
2022-09-14T02:06:01.327Z,15.9
2022-09-14T02:07:01.921Z,16
2022-09-14T02:08:01.502Z,15.9
2022-09-14T02:09:02.069Z,15.9
2022-09-14T02:10:01.643Z,15.9
2022-09-14T02:11:01.235Z,15.9
2022-09-14T02:12:01.787Z,15.9
2022-09-14T02:13:01.361Z,15.9
2022-09-14T02:14:01.935Z,15.9
2022-09-14T02:15:01.510Z,15.9
2022-09-14T02:16:01.156Z,16
2022-09-14T02:17:01.658Z,16
2022-09-14T02:18:01.232Z,16
2022-09-14T02:19:01.874Z,16
2022-09-14T02:20:01.455Z,16
2022-09-14T02:21:02.047Z,15.9
2022-09-14T02:22:01.641Z,16
2022-09-14T02:23:01.215Z,16
2022-09-14T02:24:01.791Z,16
2022-09-14T02:25:01.364Z,16
2022-09-14T02:26:01.941Z,16
2022-09-14T02:27:01.539Z,16
2022-09-14T02:28:01.089Z,16
2022-09-14T02:29:01.663Z,16
2022-09-14T02:30:01.235Z,16
2022-09-14T02:31:01.919Z,16
2022-09-14T02:32:01.474Z,16
2022-09-14T02:33:02.063Z,16
2022-09-14T02:34:01.638Z,16.1
2022-09-14T02:35:01.318Z,16.1
2022-09-14T02:36:01.788Z,16
2022-09-14T02:37:01.360Z,16
2022-09-14T02:38:01.952Z,16.1
2022-09-14T02:39:01.555Z,16.1
2022-09-14T02:40:01.183Z,16.1
2022-09-14T02:41:01.729Z,16.1
2022-09-14T02:42:01.304Z,16
2022-09-14T02:43:01.893Z,16
2022-09-14T02:44:01.471Z,16.1
2022-09-14T02:45:02.044Z,16.1
2022-09-14T02:46:01.616Z,16
2022-09-14T02:47:01.255Z,16.1
2022-09-14T02:48:01.786Z,16.1
2022-09-14T02:49:01.379Z,16.1
2022-09-14T02:50:01.946Z,16.1
2022-09-14T02:51:01.551Z,16.1
2022-09-14T02:52:01.102Z,16.1
2022-09-14T02:53:01.691Z,16.1
2022-09-14T02:54:01.281Z,16.1
2022-09-14T02:55:01.844Z,16.2
2022-09-14T02:56:01.421Z,16.1
2022-09-14T02:57:01.996Z,16.1
2022-09-14T02:58:01.571Z,16.2
2022-09-14T02:59:01.165Z,16.1
2022-09-14T03:00:01.748Z,16.1
2022-09-14T03:01:01.404Z,16.1
2022-09-14T03:02:02.002Z,16.1
2022-09-14T03:03:01.559Z,16.1
2022-09-14T03:04:01.154Z,16.1
2022-09-14T03:05:01.688Z,16.1
2022-09-14T03:06:01.260Z,16.1
2022-09-14T03:07:01.859Z,16.1
2022-09-14T03:08:01.474Z,16.1
2022-09-14T03:09:02.041Z,16.1
2022-09-14T03:10:01.618Z,16.1
2022-09-14T03:11:01.195Z,16.1
2022-09-14T03:12:01.765Z,16.1
2022-09-14T03:13:01.339Z,16.2
2022-09-14T03:14:01.927Z,16.1
2022-09-14T03:15:01.502Z,16.2
2022-09-14T03:16:02.121Z,16.1
2022-09-14T03:17:01.741Z,16.1
2022-09-14T03:18:01.300Z,16.2
2022-09-14T03:19:01.873Z,16.1
2022-09-14T03:20:01.447Z,16.1
2022-09-14T03:21:02.033Z,16.1
2022-09-14T03:22:01.622Z,16.1
2022-09-14T03:23:01.286Z,16.1
2022-09-14T03:24:01.762Z,16.1
2022-09-14T03:25:01.336Z,16.1
2022-09-14T03:26:01.914Z,16
2022-09-14T03:27:01.505Z,16
2022-09-14T03:28:02.083Z,16
2022-09-14T03:29:01.658Z,16
2022-09-14T03:30:01.232Z,16
2022-09-14T03:31:01.877Z,16
2022-09-14T03:32:01.486Z,16
2022-09-14T03:33:02.054Z,16
2022-09-14T03:34:01.628Z,15.9
2022-09-14T03:35:01.206Z,15.9
2022-09-14T03:36:01.776Z,15.9
2022-09-14T03:37:01.365Z,15.9
2022-09-14T03:38:01.956Z,15.9
2022-09-14T03:39:01.555Z,15.9
2022-09-14T03:40:01.186Z,15.9
2022-09-14T03:41:01.690Z,15.8
2022-09-14T03:42:01.264Z,15.8
2022-09-14T03:43:01.860Z,15.9
2022-09-14T03:44:01.435Z,15.8
2022-09-14T03:45:02.009Z,15.8
2022-09-14T03:46:01.581Z,15.8
2022-09-14T03:47:01.212Z,15.7
2022-09-14T03:48:01.758Z,15.6
2022-09-14T03:49:01.330Z,15.5
2022-09-14T03:50:01.909Z,15.5
2022-09-14T03:51:01.483Z,15.6
2022-09-14T03:52:02.071Z,15.6
2022-09-14T03:53:01.663Z,15.6
2022-09-14T03:54:01.252Z,15.6
2022-09-14T03:55:01.834Z,15.6
2022-09-14T03:56:01.409Z,15.6
2022-09-14T03:57:01.986Z,15.5
2022-09-14T03:58:01.580Z,15.6
2022-09-14T03:59:01.153Z,15.5
2022-09-14T04:00:01.715Z,15.6
2022-09-14T04:01:01.303Z,15.6
2022-09-14T04:02:01.927Z,15.5
2022-09-14T04:03:01.599Z,15.4
2022-09-14T04:04:02.118Z,15.5
2022-09-14T04:05:01.708Z,15.4
2022-09-14T04:06:01.283Z,15.5
2022-09-14T04:07:01.857Z,15.5
2022-09-14T04:08:01.481Z,15.5
2022-09-14T04:09:02.024Z,15.4
2022-09-14T04:10:01.602Z,15.4
2022-09-14T04:11:01.205Z,15.4
2022-09-14T04:12:01.753Z,15.3
2022-09-14T04:13:01.329Z,15.3
2022-09-14T04:14:01.920Z,15.3
2022-09-14T04:15:01.511Z,15.2
2022-09-14T04:16:02.127Z,15.2
2022-09-14T04:17:01.733Z,15.3
2022-09-14T04:18:01.295Z,15.3
2022-09-14T04:19:01.868Z,15.4
2022-09-14T04:20:01.467Z,15.3
2022-09-14T04:21:05.863Z,15.3
2022-09-14T04:22:01.569Z,15.3
2022-09-14T04:23:01.143Z,15.3
2022-09-14T04:24:17.454Z,15.3
2022-09-14T04:25:01.265Z,15.3
2022-09-14T04:26:01.869Z,15.3
2022-09-14T04:27:01.494Z,15.4
2022-09-14T04:28:19.519Z,15.4
2022-09-14T04:29:01.556Z,15.4
2022-09-14T04:30:01.145Z,15.4
2022-09-14T04:31:01.768Z,15.3
2022-09-14T04:32:01.362Z,15.4
2022-09-14T04:33:01.934Z,15.3
2022-09-14T04:34:01.506Z,15.4
2022-09-14T04:35:02.100Z,15.3
2022-09-14T04:36:01.694Z,15.3
2022-09-14T04:37:01.271Z,15.3
2022-09-14T04:38:01.842Z,15.3
2022-09-14T04:39:01.446Z,15.2
2022-09-14T04:40:02.137Z,15.2
2022-09-14T04:41:01.638Z,15.2
2022-09-14T04:42:01.227Z,15.2
2022-09-14T04:43:01.815Z,15.2
2022-09-14T04:44:01.389Z,15.2
2022-09-14T04:45:01.981Z,15.1
2022-09-14T04:46:01.595Z,15.1
2022-09-14T04:47:01.201Z,15.1
2022-09-14T04:48:01.715Z,15.1
2022-09-14T04:49:01.286Z,15.1
2022-09-14T04:50:01.857Z,15.1
2022-09-14T04:51:01.447Z,15.1
2022-09-14T04:52:02.033Z,15.1
2022-09-14T04:53:01.606Z,15.1
2022-09-14T04:54:01.178Z,15.1
2022-09-14T04:55:01.846Z,15.1
2022-09-14T04:56:01.421Z,15.1
2022-09-14T04:57:01.979Z,15.1
2022-09-14T04:58:01.554Z,15.1
2022-09-14T04:59:01.239Z,15.1
2022-09-14T05:00:01.700Z,15
2022-09-14T05:01:01.295Z,15
2022-09-14T05:02:01.960Z,14.9
2022-09-14T05:03:01.598Z,15
2022-09-14T05:04:02.111Z,15
2022-09-14T05:05:01.686Z,15
2022-09-14T05:06:01.262Z,15
2022-09-14T05:07:01.836Z,15
2022-09-14T05:08:01.413Z,14.9
2022-09-14T05:09:02.047Z,15
2022-09-14T05:10:01.621Z,15
2022-09-14T05:11:01.196Z,15
2022-09-14T05:12:01.769Z,15
2022-09-14T05:13:01.342Z,15
2022-09-14T05:14:01.931Z,15
2022-09-14T05:15:01.549Z,15
2022-09-14T05:16:02.115Z,15
2022-09-14T05:17:01.722Z,15
2022-09-14T05:18:01.301Z,15
2022-09-14T05:19:01.894Z,15
2022-09-14T05:20:01.496Z,15
2022-09-14T05:21:05.111Z,14.9
2022-09-14T05:22:01.606Z,15
2022-09-14T05:23:01.180Z,15
2022-09-14T05:24:01.766Z,14.9
2022-09-14T05:25:01.351Z,14.9
2022-09-14T05:26:01.914Z,14.9
2022-09-14T05:27:02.364Z,14.9
2022-09-14T05:28:02.019Z,14.9
2022-09-14T05:29:01.601Z,14.9
2022-09-14T05:30:01.174Z,14.9
2022-09-14T05:31:01.884Z,14.9
2022-09-14T05:32:01.408Z,14.8
2022-09-14T05:33:01.978Z,14.8
2022-09-14T05:34:01.555Z,14.8
2022-09-14T05:35:01.127Z,14.8
2022-09-14T05:36:01.702Z,14.8
2022-09-14T05:37:01.298Z,14.9
2022-09-14T05:38:01.858Z,14.8
2022-09-14T05:39:01.433Z,14.8
2022-09-14T05:40:02.094Z,14.8
2022-09-14T05:41:01.657Z,14.8
2022-09-14T05:42:01.249Z,14.8
2022-09-14T05:43:01.814Z,14.8
2022-09-14T05:44:01.389Z,14.8
2022-09-14T05:45:01.962Z,14.8
2022-09-14T05:46:01.586Z,14.8
2022-09-14T05:47:02.158Z,14.8
2022-09-14T05:48:01.732Z,14.8
2022-09-14T05:49:01.308Z,14.8
2022-09-14T05:50:01.889Z,14.8
2022-09-14T05:51:01.470Z,14.8
2022-09-14T05:52:02.077Z,14.8
2022-09-14T05:53:01.653Z,14.8
2022-09-14T05:54:01.231Z,14.8
2022-09-14T05:55:01.813Z,14.8
2022-09-14T05:56:01.389Z,14.8
2022-09-14T05:57:01.980Z,14.8
2022-09-14T05:58:01.572Z,14.8
2022-09-14T05:59:01.143Z,14.8
2022-09-14T06:00:01.715Z,14.8
2022-09-14T06:01:01.290Z,14.8
2022-09-14T06:02:02.024Z,14.8
2022-09-14T06:03:01.639Z,14.7
2022-09-14T06:04:02.093Z,14.7
2022-09-14T06:05:01.769Z,14.7
2022-09-14T06:06:01.339Z,14.6
2022-09-14T06:07:17.749Z,14.6
2022-09-14T06:08:01.472Z,14.5
2022-09-14T06:09:02.050Z,14.5
2022-09-14T06:10:01.664Z,14.6
2022-09-14T06:11:01.197Z,14.5
2022-09-14T06:12:01.771Z,14.5
2022-09-14T06:13:01.360Z,14.5
2022-09-14T06:14:01.932Z,14.5
2022-09-14T06:15:01.542Z,14.4
2022-09-14T06:16:02.087Z,14.4
2022-09-14T06:17:01.663Z,14.5
2022-09-14T06:18:01.235Z,14.4
2022-09-14T06:19:01.952Z,14.5
2022-09-14T06:20:04.571Z,14.4
2022-09-14T06:21:01.994Z,14.4
2022-09-14T06:22:01.583Z,14.4
2022-09-14T06:23:01.159Z,14.4
2022-09-14T06:24:01.752Z,14.4
2022-09-14T06:25:01.342Z,14.4
2022-09-14T06:26:01.925Z,14.4
2022-09-14T06:27:01.502Z,14.3
2022-09-14T06:28:02.077Z,14.3
2022-09-14T06:29:01.668Z,14.3
2022-09-14T06:30:01.265Z,14.3
2022-09-14T06:31:01.814Z,14.3
2022-09-14T06:32:01.388Z,14.3
2022-09-14T06:33:01.964Z,14.3
2022-09-14T06:34:01.555Z,14.3
2022-09-14T06:35:02.145Z,14.3
2022-09-14T06:36:01.721Z,14.3
2022-09-14T06:37:01.297Z,14.3
2022-09-14T06:38:01.875Z,14.3
2022-09-14T06:39:01.479Z,14.3
2022-09-14T06:40:02.100Z,14.3
2022-09-14T06:41:01.686Z,14.3
2022-09-14T06:42:01.282Z,14.3
2022-09-14T06:43:01.848Z,14.2
2022-09-14T06:44:01.423Z,14.2
2022-09-14T06:45:01.999Z,14.2
2022-09-14T06:46:01.573Z,14.1
2022-09-14T06:47:01.166Z,14.1
2022-09-14T06:48:01.733Z,14.1
2022-09-14T06:49:01.309Z,14.1
2022-09-14T06:50:01.879Z,14.1
2022-09-14T06:51:01.570Z,14.1
2022-09-14T06:52:02.057Z,14.1
2022-09-14T06:53:01.631Z,14.2
2022-09-14T06:54:01.201Z,14.1
2022-09-14T06:55:01.794Z,14
2022-09-14T06:56:01.368Z,14
2022-09-14T06:57:01.953Z,13.9
2022-09-14T06:58:01.529Z,13.9
2022-09-14T06:59:02.103Z,13.9
2022-09-14T07:00:01.678Z,13.8
2022-09-14T07:01:01.289Z,13.9
2022-09-14T07:02:01.827Z,13.8
2022-09-14T07:03:01.443Z,13.9
2022-09-14T07:04:01.971Z,13.8
2022-09-14T07:05:01.548Z,13.8
2022-09-14T07:06:02.137Z,13.8
2022-09-14T07:07:01.731Z,13.8
2022-09-14T07:08:01.306Z,13.8
2022-09-14T07:09:01.876Z,13.9
2022-09-14T07:10:01.492Z,13.8
2022-09-14T07:11:02.053Z,13.8
2022-09-14T07:12:01.835Z,13.8
2022-09-14T07:13:01.206Z,13.8
2022-09-14T07:14:01.781Z,13.8
2022-09-14T07:15:01.368Z,13.8
2022-09-14T07:16:01.952Z,13.8
2022-09-14T07:17:01.528Z,13.8
2022-09-14T07:18:02.104Z,13.8
2022-09-14T07:19:01.675Z,13.8
2022-09-14T07:20:01.248Z,13.8
2022-09-14T07:21:05.350Z,13.8
2022-09-14T07:22:01.376Z,13.8
2022-09-14T07:23:02.066Z,13.8
2022-09-14T07:24:01.643Z,13.8
2022-09-14T07:25:01.177Z,13.8
2022-09-14T07:26:01.757Z,13.8
2022-09-14T07:27:01.331Z,13.8
2022-09-14T07:28:01.904Z,13.9
2022-09-14T07:29:01.497Z,13.8
2022-09-14T07:30:02.053Z,13.8
2022-09-14T07:31:01.673Z,13.8
2022-09-14T07:32:01.233Z,13.8
2022-09-14T07:33:01.801Z,13.8
2022-09-14T07:34:01.376Z,13.8
2022-09-14T07:35:01.948Z,13.9
2022-09-14T07:36:01.521Z,13.9
2022-09-14T07:37:02.110Z,13.9
2022-09-14T07:38:01.683Z,13.8
2022-09-14T07:39:01.558Z,13.8
2022-09-14T07:40:01.894Z,13.8
2022-09-14T07:41:01.495Z,13.7
2022-09-14T07:42:02.067Z,13.8
2022-09-14T07:43:01.674Z,13.8
2022-09-14T07:44:01.244Z,13.8
2022-09-14T07:45:01.816Z,13.9
2022-09-14T07:46:01.445Z,13.8
2022-09-14T07:47:01.961Z,13.8
2022-09-14T07:48:01.563Z,13.8
2022-09-14T07:49:02.108Z,13.8
2022-09-14T07:50:01.682Z,13.8
2022-09-14T07:51:01.270Z,13.8
2022-09-14T07:52:01.842Z,13.9
2022-09-14T07:53:01.417Z,13.8
2022-09-14T07:54:02.033Z,13.8
2022-09-14T07:55:01.633Z,13.9
2022-09-14T07:56:01.193Z,13.8
2022-09-14T07:57:01.766Z,13.8
2022-09-14T07:58:01.338Z,13.9
2022-09-14T08:00:01.460Z,13.8
2022-09-14T08:01:02.056Z,13.8
2022-09-14T08:02:01.837Z,13.8
2022-09-14T08:03:01.236Z,13.8
2022-09-14T08:04:05.268Z,13.8
2022-09-14T08:05:01.344Z,13.8
2022-09-14T08:06:01.913Z,13.8
2022-09-14T08:07:01.506Z,13.8
2022-09-14T08:08:02.073Z,13.8
2022-09-14T08:09:01.645Z,13.8
2022-09-14T08:10:01.222Z,13.8
2022-09-14T08:11:01.893Z,13.8
2022-09-14T08:12:01.469Z,13.8
2022-09-14T08:13:02.037Z,13.8
2022-09-14T08:14:01.627Z,13.8
2022-09-14T08:15:01.196Z,13.8
2022-09-14T08:16:01.769Z,13.8
2022-09-14T08:17:01.481Z,13.8
2022-09-14T08:18:01.923Z,13.8
2022-09-14T08:19:01.497Z,13.8
2022-09-14T08:20:02.071Z,13.8
2022-09-14T08:21:01.647Z,13.8
2022-09-14T08:22:01.237Z,13.8
2022-09-14T08:23:01.796Z,13.8
2022-09-14T08:24:01.376Z,13.8
2022-09-14T08:25:01.944Z,13.8
2022-09-14T08:26:01.524Z,13.8
2022-09-14T08:27:02.145Z,13.9
2022-09-14T08:28:01.722Z,13.8
2022-09-14T08:29:01.295Z,13.8
2022-09-14T08:30:01.870Z,13.8
2022-09-14T08:31:01.445Z,13.8
2022-09-14T08:32:02.101Z,13.8
2022-09-14T08:33:02.043Z,13.8
2022-09-14T08:34:01.280Z,13.8
2022-09-14T08:35:01.842Z,13.8
2022-09-14T08:36:01.473Z,13.8
2022-09-14T08:37:02.008Z,13.9
2022-09-14T08:38:01.595Z,13.9
2022-09-14T08:39:01.165Z,14
2022-09-14T08:40:01.779Z,14.1
2022-09-14T08:41:01.382Z,14.1
2022-09-14T08:42:01.973Z,14.1
2022-09-14T08:43:01.569Z,14.1
2022-09-14T08:44:02.150Z,14.1
2022-09-14T08:45:01.993Z,14.1
2022-09-14T08:46:02.171Z,14.3
2022-09-14T08:47:01.802Z,14.3
2022-09-14T08:48:01.383Z,14.3
2022-09-14T08:49:01.978Z,14.3
2022-09-14T08:50:01.568Z,14.3
2022-09-14T08:51:02.125Z,14.3
2022-09-14T08:52:01.699Z,14.4
2022-09-14T08:53:01.273Z,14.2
2022-09-14T08:54:01.860Z,14.2
2022-09-14T08:55:01.452Z,14.2
2022-09-14T08:56:02.017Z,14.1
2022-09-14T08:57:01.592Z,14
2022-09-14T08:58:01.171Z,14
2022-09-14T08:59:01.773Z,14
2022-09-14T09:00:01.360Z,14
2022-09-14T09:01:01.995Z,14.1
2022-09-14T09:02:01.590Z,14
2022-09-14T09:03:01.165Z,14.1
2022-09-14T09:04:01.772Z,14.1
2022-09-14T09:05:01.366Z,14.1
2022-09-14T09:06:01.957Z,14.1
2022-09-14T09:07:01.548Z,14.1
2022-09-14T09:08:02.109Z,14.1
2022-09-14T09:09:01.683Z,14.1
2022-09-14T09:10:01.261Z,14.2
2022-09-14T09:11:01.866Z,14.2
2022-09-14T09:12:01.488Z,14.2
2022-09-14T09:13:02.028Z,14.3
2022-09-14T09:14:01.607Z,14.3
2022-09-14T09:15:01.210Z,14.4
2022-09-14T09:16:01.859Z,14.3
2022-09-14T09:17:01.419Z,14.4
2022-09-14T09:18:01.991Z,14.5
2022-09-14T09:19:01.581Z,14.6
2022-09-14T09:20:02.152Z,14.6
2022-09-14T09:21:01.743Z,14.6
2022-09-14T09:22:01.334Z,14.6
2022-09-14T09:23:01.921Z,14.6
2022-09-14T09:24:01.493Z,14.7
2022-09-14T09:25:02.067Z,14.8
2022-09-14T09:26:01.643Z,14.8
2022-09-14T09:27:01.234Z,14.8
2022-09-14T09:28:01.801Z,14.7
2022-09-14T09:29:01.373Z,14.7
2022-09-14T09:30:01.946Z,14.7
2022-09-14T09:31:01.651Z,14.7
2022-09-14T09:32:02.165Z,14.6
2022-09-14T09:33:01.763Z,14.5
2022-09-14T09:34:01.352Z,14.5
2022-09-14T09:35:01.920Z,14.4
2022-09-14T09:36:01.506Z,14.3
2022-09-14T09:37:02.094Z,14.4
2022-09-14T09:38:01.663Z,14.3
2022-09-14T09:39:04.915Z,14.3
2022-09-14T09:40:01.810Z,14.3
2022-09-14T09:41:01.410Z,14.4
2022-09-14T09:42:01.999Z,14.3
2022-09-14T09:43:01.573Z,14.4
2022-09-14T09:44:02.152Z,14.4
2022-09-14T09:45:03.797Z,14.3
2022-09-14T09:46:01.258Z,14.3
2022-09-14T09:47:02.081Z,14.3
2022-09-14T09:48:01.487Z,14.3
2022-09-14T09:49:02.058Z,14.3
2022-09-14T09:50:01.630Z,14.3
2022-09-14T09:51:01.201Z,14.4
2022-09-14T09:52:01.797Z,14.3
2022-09-14T09:53:06.103Z,14.3
2022-09-14T09:54:01.904Z,14.3
2022-09-14T09:55:01.478Z,14.3
2022-09-14T09:56:02.051Z,14.1
2022-09-14T09:57:01.665Z,14.1
2022-09-14T09:58:01.209Z,14
2022-09-14T09:59:01.781Z,13.9
2022-09-14T10:00:01.353Z,13.9
2022-09-14T10:01:01.970Z,13.8
2022-09-14T10:02:01.637Z,13.8
2022-09-14T10:03:01.203Z,13.8
2022-09-14T10:04:01.755Z,13.8
2022-09-14T10:05:01.330Z,13.9
2022-09-14T10:06:01.901Z,13.9
2022-09-14T10:07:01.486Z,13.8
2022-09-14T10:08:02.077Z,13.7
2022-09-14T10:09:01.654Z,13.7
2022-09-14T10:10:01.224Z,13.8
2022-09-14T10:11:01.795Z,13.9
2022-09-14T10:12:01.408Z,13.9
2022-09-14T10:13:01.966Z,13.9
2022-09-14T10:14:01.555Z,13.9
2022-09-14T10:15:02.130Z,14
2022-09-14T10:16:01.735Z,14
2022-09-14T10:17:01.330Z,14
2022-09-14T10:18:01.900Z,14
2022-09-14T10:19:01.628Z,14.1
2022-09-14T10:20:02.061Z,14.1
2022-09-14T10:21:01.632Z,14.1
2022-09-14T10:22:01.207Z,14.2
2022-09-14T10:23:01.778Z,14.2
2022-09-14T10:24:01.368Z,14.3
2022-09-14T10:25:01.953Z,14.3
2022-09-14T10:26:01.537Z,14.2
2022-09-14T10:27:02.110Z,14.2
2022-09-14T10:28:01.688Z,14.2
2022-09-14T10:29:01.270Z,14.1
2022-09-14T10:30:01.857Z,14
2022-09-14T10:31:01.503Z,14
2022-09-14T10:32:02.016Z,14
2022-09-14T10:33:01.587Z,14
2022-09-14T10:34:01.165Z,14
2022-09-14T10:35:01.776Z,14
2022-09-14T10:36:01.347Z,14.1
2022-09-14T10:37:01.917Z,14
2022-09-14T10:38:01.497Z,13.9
2022-09-14T10:39:02.067Z,13.8
2022-09-14T10:40:01.774Z,13.8
2022-09-14T10:41:01.224Z,13.6
2022-09-14T10:42:01.812Z,13.5
2022-09-14T10:43:01.389Z,13.4
2022-09-14T10:44:01.965Z,13.4
2022-09-14T10:45:01.541Z,13.4
2022-09-14T10:46:02.221Z,13.5
2022-09-14T10:47:04.661Z,13.5
2022-09-14T10:48:01.376Z,13.6
2022-09-14T10:49:01.918Z,13.6
2022-09-14T10:50:01.503Z,13.6
2022-09-14T10:51:02.291Z,13.7
2022-09-14T10:52:01.878Z,13.7
2022-09-14T10:53:01.307Z,13.7
2022-09-14T10:54:01.879Z,13.7
2022-09-14T10:55:01.454Z,13.7
2022-09-14T10:56:02.027Z,13.7
2022-09-14T10:57:01.614Z,13.6
2022-09-14T10:58:01.181Z,13.6
2022-09-14T10:59:01.753Z,13.7
2022-09-14T11:00:01.324Z,13.7
2022-09-14T11:01:01.900Z,13.7
2022-09-14T11:02:01.650Z,13.7
2022-09-14T11:03:02.115Z,13.8
2022-09-14T11:04:01.744Z,13.8
2022-09-14T11:05:01.319Z,13.8
2022-09-14T11:06:01.888Z,13.8
2022-09-14T11:07:01.483Z,13.8
2022-09-14T11:08:02.046Z,13.8
2022-09-14T11:09:01.651Z,13.8
2022-09-14T11:10:01.203Z,13.7
2022-09-14T11:11:01.774Z,13.7
2022-09-14T11:12:01.362Z,13.7
2022-09-14T11:13:01.954Z,13.7
2022-09-14T11:14:01.526Z,13.7
2022-09-14T11:15:02.101Z,13.7
2022-09-14T11:16:01.710Z,13.7
2022-09-14T11:17:01.338Z,13.7
2022-09-14T11:18:01.899Z,13.7
2022-09-14T11:19:01.472Z,13.8
2022-09-14T11:20:02.059Z,13.8
2022-09-14T11:21:01.641Z,13.8
2022-09-14T11:22:01.237Z,13.9
2022-09-14T11:23:01.838Z,14
2022-09-14T11:24:01.408Z,14
2022-09-14T11:25:01.995Z,13.9
2022-09-14T11:26:01.568Z,14
2022-09-14T11:27:02.140Z,14
2022-09-14T11:28:01.711Z,13.9
2022-09-14T11:29:01.283Z,14
2022-09-14T11:30:01.878Z,13.9
2022-09-14T11:31:01.496Z,13.9
2022-09-14T11:32:19.628Z,13.9
2022-09-14T11:33:01.573Z,14
2022-09-14T11:34:02.145Z,14
2022-09-14T11:35:01.731Z,14
2022-09-14T11:36:01.305Z,14
2022-09-14T11:37:01.874Z,14
2022-09-14T11:38:01.445Z,14
2022-09-14T11:39:06.126Z,14.1
2022-09-14T11:40:01.635Z,14
2022-09-14T11:41:01.244Z,14.1
2022-09-14T11:42:01.825Z,14
2022-09-14T11:43:01.394Z,14.1
2022-09-14T11:44:01.972Z,14.1
2022-09-14T11:45:01.548Z,14.1
2022-09-14T11:46:02.198Z,14.1
2022-09-14T11:47:01.824Z,14
2022-09-14T11:48:01.386Z,14.1
2022-09-14T11:49:01.960Z,14
2022-09-14T11:50:01.535Z,14
2022-09-14T11:51:02.109Z,14
2022-09-14T11:52:01.681Z,14.1
2022-09-14T11:53:01.264Z,14.1
2022-09-14T11:54:01.835Z,14.2
2022-09-14T11:55:01.518Z,14.2
2022-09-14T11:56:01.997Z,14.2
2022-09-14T11:57:01.572Z,14.1
2022-09-14T11:58:02.160Z,14
2022-09-14T11:59:01.732Z,13.8
2022-09-14T12:00:01.305Z,13.9
2022-09-14T12:01:01.877Z,14
2022-09-14T12:02:01.450Z,14
2022-09-14T12:03:02.086Z,14.2
2022-09-14T12:04:01.759Z,14.3
2022-09-14T12:05:01.268Z,14.3
2022-09-14T12:06:01.839Z,14.3
2022-09-14T12:07:01.414Z,14.3
2022-09-14T12:08:02.007Z,14.3
2022-09-14T12:09:01.581Z,14.4
2022-09-14T12:10:02.151Z,14.4
2022-09-14T12:11:01.873Z,14.3
2022-09-14T12:12:01.384Z,14.3
2022-09-14T12:13:01.970Z,14.2
2022-09-14T12:14:01.571Z,14.1
2022-09-14T12:15:02.141Z,14.1
2022-09-14T12:16:01.756Z,14.2
2022-09-14T12:17:04.112Z,14.2
2022-09-14T12:18:01.916Z,14.3
2022-09-14T12:19:01.488Z,14.3
2022-09-14T12:20:02.068Z,14.3
2022-09-14T12:21:01.647Z,14.3
2022-09-14T12:22:01.221Z,14.2
2022-09-14T12:23:01.810Z,14.2
2022-09-14T12:24:01.384Z,14.1
2022-09-14T12:25:01.956Z,14.1
2022-09-14T12:26:01.536Z,14.1
2022-09-14T12:27:02.139Z,14.1
2022-09-14T12:28:01.730Z,14.1
2022-09-14T12:29:01.305Z,14
2022-09-14T12:30:01.874Z,14.1
2022-09-14T12:31:01.504Z,14.1
2022-09-14T12:32:02.036Z,14.1
2022-09-14T12:33:01.621Z,14.2
2022-09-14T12:34:01.189Z,14.3
2022-09-14T12:35:01.760Z,14.3
2022-09-14T12:36:01.345Z,14.3
2022-09-14T12:37:01.936Z,14.3
2022-09-14T12:38:01.507Z,14.2
2022-09-14T12:39:02.078Z,14.3
2022-09-14T12:40:01.712Z,14.3
2022-09-14T12:41:01.308Z,14.3
2022-09-14T12:42:01.895Z,14.2
2022-09-14T12:43:01.490Z,14.3
2022-09-14T12:44:02.068Z,14.3
2022-09-14T12:45:01.641Z,14.3
2022-09-14T12:46:01.277Z,14.4
2022-09-14T12:47:01.799Z,14.3
2022-09-14T12:48:01.389Z,14.2
2022-09-14T12:49:01.971Z,14.2
2022-09-14T12:50:01.563Z,14.3
2022-09-14T12:51:02.128Z,14.3
2022-09-14T12:52:01.701Z,14.3
2022-09-14T12:53:01.316Z,14.3
2022-09-14T12:54:01.853Z,14.2
2022-09-14T12:55:01.427Z,14.3
2022-09-14T12:56:01.998Z,14.2
2022-09-14T12:57:01.570Z,14.2
2022-09-14T12:58:02.163Z,14.1
2022-09-14T12:59:01.878Z,14.1
2022-09-14T13:00:01.386Z,14.1
2022-09-14T13:01:02.027Z,14.2
2022-09-14T13:02:01.718Z,14.2
2022-09-14T13:03:01.202Z,14.2
2022-09-14T13:04:01.789Z,14.3
2022-09-14T13:05:01.360Z,14.4
2022-09-14T13:06:01.932Z,14.3
2022-09-14T13:07:01.511Z,14.3
2022-09-14T13:08:02.085Z,14.4
2022-09-14T13:09:01.673Z,14.4
2022-09-14T13:10:01.244Z,14.4
2022-09-14T13:11:01.816Z,14.4
2022-09-14T13:12:01.386Z,14.5
2022-09-14T13:13:01.958Z,14.5
2022-09-14T13:14:01.592Z,14.5
2022-09-14T13:15:02.152Z,14.4
2022-09-14T13:16:01.790Z,14.3
2022-09-14T13:17:01.352Z,14.4
2022-09-14T13:18:01.929Z,14.4
2022-09-14T13:19:01.527Z,14.4
2022-09-14T13:20:02.087Z,14.5
2022-09-14T13:21:01.660Z,14.6
2022-09-14T13:22:01.232Z,14.6
2022-09-14T13:23:01.814Z,14.6
2022-09-14T13:24:01.404Z,14.5
2022-09-14T13:25:01.986Z,14.5
2022-09-14T13:26:01.580Z,14.5